sensor_id;sensor_type;location;lat;lon;timestamp;pressure;altitude;pressure_sealevel;temperature;humidity
72959;BME280;60008;50.826;6.896;2023-06-19T00:02:17;100312.31;;;21.17;100.00
72959;BME280;60008;50.826;6.896;2023-06-19T00:05:09;100318.88;;;21.21;100.00
72959;BME280;60008;50.826;6.896;2023-06-19T00:08:01;100313.03;;;21.13;100.00
72959;BME280;60008;50.826;6.896;2023-06-19T00:10:54;100309.41;;;21.19;100.00
72959;BME280;60008;50.826;6.896;2023-06-19T00:13:46;100316.28;;;21.26;100.00
72959;BME280;60008;50.826;6.896;2023-06-19T00:16:31;100301.66;;;21.22;100.00
72959;BME280;60008;50.826;6.896;2023-06-19T00:19:23;100304.72;;;21.14;100.00
72959;BME280;60008;50.826;6.896;2023-06-19T00:22:08;100309.88;;;21.16;100.00
72959;BME280;60008;50.826;6.896;2023-06-19T00:25:00;100316.78;;;21.12;100.00
72959;BME280;60008;50.826;6.896;2023-06-19T00:27:46;100304.97;;;21.01;100.00
72959;BME280;60008;50.826;6.896;2023-06-19T00:30:38;100322.78;;;21.02;100.00
72959;BME280;60008;50.826;6.896;2023-06-19T00:33:23;100321.47;;;21.05;100.00
72959;BME280;60008;50.826;6.896;2023-06-19T00:36:15;100319.28;;;20.90;100.00
72959;BME280;60008;50.826;6.896;2023-06-19T00:39:00;100313.66;;;20.92;100.00
72959;BME280;60008;50.826;6.896;2023-06-19T00:41:52;100331.22;;;20.94;100.00
72959;BME280;60008;50.826;6.896;2023-06-19T00:44:37;100342.13;;;20.99;100.00
72959;BME280;60008;50.826;6.896;2023-06-19T00:47:30;100334.69;;;21.06;100.00
72959;BME280;60008;50.826;6.896;2023-06-19T00:50:15;100336.94;;;21.09;100.00
72959;BME280;60008;50.826;6.896;2023-06-19T00:53:07;100343.50;;;21.13;100.00
72959;BME280;60008;50.826;6.896;2023-06-19T00:55:54;100337.31;;;21.13;100.00
72959;BME280;60008;50.826;6.896;2023-06-19T00:58:47;100348.81;;;21.08;100.00
72959;BME280;60008;50.826;6.896;2023-06-19T01:01:32;100344.22;;;20.97;100.00
72959;BME280;60008;50.826;6.896;2023-06-19T01:04:30;100338.69;;;21.15;100.00
72959;BME280;60008;50.826;6.896;2023-06-19T01:07:16;100343.63;;;21.18;100.00
72959;BME280;60008;50.826;6.896;2023-06-19T01:10:13;100330.59;;;21.15;100.00
72959;BME280;60008;50.826;6.896;2023-06-19T01:13:04;100334.69;;;21.18;100.00
72959;BME280;60008;50.826;6.896;2023-06-19T01:15:59;100333.56;;;21.14;100.00
72959;BME280;60008;50.826;6.896;2023-06-19T01:18:45;100337.91;;;20.92;100.00
72959;BME280;60008;50.826;6.896;2023-06-19T01:21:37;100336.63;;;20.83;100.00
72959;BME280;60008;50.826;6.896;2023-06-19T01:24:22;100338.75;;;20.81;100.00
72959;BME280;60008;50.826;6.896;2023-06-19T01:27:14;100338.63;;;20.87;100.00
72959;BME280;60008;50.826;6.896;2023-06-19T01:29:59;100340.13;;;20.95;100.00
72959;BME280;60008;50.826;6.896;2023-06-19T01:33:00;100342.69;;;21.01;100.00
72959;BME280;60008;50.826;6.896;2023-06-19T01:35:56;100337.28;;;21.01;100.00
72959;BME280;60008;50.826;6.896;2023-06-19T01:38:44;100327.34;;;21.02;100.00
72959;BME280;60008;50.826;6.896;2023-06-19T01:41:36;100334.69;;;21.06;100.00
72959;BME280;60008;50.826;6.896;2023-06-19T01:44:23;100333.47;;;21.09;100.00
72959;BME280;60008;50.826;6.896;2023-06-19T01:47:15;100336.94;;;21.09;100.00
72959;BME280;60008;50.826;6.896;2023-06-19T01:50:05;100336.59;;;21.06;100.00
72959;BME280;60008;50.826;6.896;2023-06-19T01:52:57;100348.16;;;21.06;100.00
72959;BME280;60008;50.826;6.896;2023-06-19T01:55:42;100341.78;;;21.07;100.00
72959;BME280;60008;50.826;6.896;2023-06-19T01:58:34;100343.75;;;21.12;100.00
72959;BME280;60008;50.826;6.896;2023-06-19T02:01:19;100339.78;;;21.14;100.00
72959;BME280;60008;50.826;6.896;2023-06-19T02:04:11;100343.75;;;21.12;100.00
72959;BME280;60008;50.826;6.896;2023-06-19T02:07:09;100349.72;;;21.02;100.00
72959;BME280;60008;50.826;6.896;2023-06-19T02:10:01;100362.94;;;21.04;100.00
72959;BME280;60008;50.826;6.896;2023-06-19T02:12:53;100359.47;;;21.03;100.00
72959;BME280;60008;50.826;6.896;2023-06-19T02:15:45;100365.63;;;21.04;100.00
72959;BME280;60008;50.826;6.896;2023-06-19T02:18:30;100371.41;;;21.07;100.00
72959;BME280;60008;50.826;6.896;2023-06-19T02:21:22;100359.94;;;21.00;100.00
72959;BME280;60008;50.826;6.896;2023-06-19T02:24:14;100364.16;;;21.08;100.00
72959;BME280;60008;50.826;6.896;2023-06-19T02:27:05;100363.22;;;21.14;100.00
72959;BME280;60008;50.826;6.896;2023-06-19T02:29:57;100351.38;;;21.03;100.00
72959;BME280;60008;50.826;6.896;2023-06-19T02:32:48;100376.78;;;21.19;100.00
72959;BME280;60008;50.826;6.896;2023-06-19T02:35:33;100380.22;;;21.14;100.00
72959;BME280;60008;50.826;6.896;2023-06-19T02:38:26;100383.59;;;21.10;100.00
72959;BME280;60008;50.826;6.896;2023-06-19T02:41:17;100391.94;;;21.08;100.00
72959;BME280;60008;50.826;6.896;2023-06-19T02:44:03;100386.16;;;20.93;100.00
72959;BME280;60008;50.826;6.896;2023-06-19T02:46:55;100396.25;;;20.98;100.00
72959;BME280;60008;50.826;6.896;2023-06-19T02:49:46;100403.53;;;20.74;100.00
72959;BME280;60008;50.826;6.896;2023-06-19T02:52:31;100411.63;;;20.62;100.00
72959;BME280;60008;50.826;6.896;2023-06-19T02:55:23;100406.78;;;20.41;100.00
72959;BME280;60008;50.826;6.896;2023-06-19T02:58:08;100417.72;;;20.46;100.00
72959;BME280;60008;50.826;6.896;2023-06-19T03:00:59;100426.47;;;20.42;100.00
72959;BME280;60008;50.826;6.896;2023-06-19T03:03:45;100426.91;;;20.39;100.00
72959;BME280;60008;50.826;6.896;2023-06-19T03:06:37;100435.13;;;20.32;100.00
72959;BME280;60008;50.826;6.896;2023-06-19T03:09:24;100430.50;;;20.21;100.00
72959;BME280;60008;50.826;6.896;2023-06-19T03:12:16;100429.31;;;20.17;100.00
72959;BME280;60008;50.826;6.896;2023-06-19T03:15:01;100430.47;;;20.09;100.00
72959;BME280;60008;50.826;6.896;2023-06-19T03:17:53;100423.81;;;20.12;100.00
72959;BME280;60008;50.826;6.896;2023-06-19T03:20:38;100419.25;;;20.12;100.00
72959;BME280;60008;50.826;6.896;2023-06-19T03:23:30;100422.63;;;20.19;100.00
72959;BME280;60008;50.826;6.896;2023-06-19T03:26:15;100423.41;;;20.27;100.00
72959;BME280;60008;50.826;6.896;2023-06-19T03:29:06;100422.50;;;20.33;100.00
72959;BME280;60008;50.826;6.896;2023-06-19T03:31:51;100424.09;;;20.34;100.00
72959;BME280;60008;50.826;6.896;2023-06-19T03:34:42;100426.81;;;20.34;100.00
72959;BME280;60008;50.826;6.896;2023-06-19T03:37:27;100436.06;;;20.38;100.00
72959;BME280;60008;50.826;6.896;2023-06-19T03:40:18;100433.97;;;20.40;100.00
72959;BME280;60008;50.826;6.896;2023-06-19T03:43:03;100442.28;;;20.38;100.00
72959;BME280;60008;50.826;6.896;2023-06-19T03:45:55;100443.81;;;20.46;100.00
72959;BME280;60008;50.826;6.896;2023-06-19T03:48:40;100448.03;;;20.53;100.00
72959;BME280;60008;50.826;6.896;2023-06-19T03:51:32;100447.09;;;20.59;100.00
72959;BME280;60008;50.826;6.896;2023-06-19T03:54:17;100454.34;;;20.59;100.00
72959;BME280;60008;50.826;6.896;2023-06-19T03:57:09;100466.16;;;20.58;100.00
72959;BME280;60008;50.826;6.896;2023-06-19T03:59:54;100483.41;;;20.57;100.00
72959;BME280;60008;50.826;6.896;2023-06-19T04:02:45;100487.47;;;20.48;100.00
72959;BME280;60008;50.826;6.896;2023-06-19T04:05:33;100495.41;;;20.43;100.00
72959;BME280;60008;50.826;6.896;2023-06-19T04:08:33;100500.63;;;20.26;100.00
72959;BME280;60008;50.826;6.896;2023-06-19T04:11:18;100511.31;;;20.14;100.00
72959;BME280;60008;50.826;6.896;2023-06-19T04:14:10;100506.41;;;20.11;100.00
72959;BME280;60008;50.826;6.896;2023-06-19T04:16:55;100517.84;;;20.07;100.00
72959;BME280;60008;50.826;6.896;2023-06-19T04:19:46;100522.50;;;20.00;100.00
72959;BME280;60008;50.826;6.896;2023-06-19T04:22:31;100531.03;;;19.97;100.00
72959;BME280;60008;50.826;6.896;2023-06-19T04:25:22;100535.03;;;20.06;100.00
72959;BME280;60008;50.826;6.896;2023-06-19T04:28:07;100534.69;;;20.02;100.00
72959;BME280;60008;50.826;6.896;2023-06-19T04:30:58;100538.56;;;20.06;100.00
72959;BME280;60008;50.826;6.896;2023-06-19T04:33:46;100544.94;;;19.94;100.00
72959;BME280;60008;50.826;6.896;2023-06-19T04:36:38;100547.38;;;19.95;100.00
72959;BME280;60008;50.826;6.896;2023-06-19T04:39:23;100540.41;;;20.06;100.00
72959;BME280;60008;50.826;6.896;2023-06-19T04:42:16;100533.72;;;19.97;100.00
72959;BME280;60008;50.826;6.896;2023-06-19T04:45:06;100527.66;;;20.01;100.00
72959;BME280;60008;50.826;6.896;2023-06-19T04:47:58;100529.06;;;20.04;100.00
72959;BME280;60008;50.826;6.896;2023-06-19T04:50:48;100536.81;;;20.12;100.00
72959;BME280;60008;50.826;6.896;2023-06-19T04:53:39;100547.13;;;20.15;100.00
72959;BME280;60008;50.826;6.896;2023-06-19T04:56:24;100550.66;;;20.15;100.00
72959;BME280;60008;50.826;6.896;2023-06-19T04:59:15;100559.41;;;20.11;100.00
72959;BME280;60008;50.826;6.896;2023-06-19T05:02:10;100556.03;;;20.15;100.00
72959;BME280;60008;50.826;6.896;2023-06-19T05:05:02;100562.78;;;20.06;100.00
72959;BME280;60008;50.826;6.896;2023-06-19T05:07:53;100566.34;;;20.00;100.00
72959;BME280;60008;50.826;6.896;2023-06-19T05:10:45;100564.94;;;20.16;100.00
72959;BME280;60008;50.826;6.896;2023-06-19T05:13:37;100567.53;;;20.23;100.00
72959;BME280;60008;50.826;6.896;2023-06-19T05:16:22;100571.78;;;20.30;100.00
72959;BME280;60008;50.826;6.896;2023-06-19T05:19:18;100567.38;;;20.36;100.00
72959;BME280;60008;50.826;6.896;2023-06-19T05:22:04;100566.91;;;20.39;100.00
72959;BME280;60008;50.826;6.896;2023-06-19T05:24:55;100561.81;;;20.49;100.00
72959;BME280;60008;50.826;6.896;2023-06-19T05:27:47;100571.13;;;20.35;100.00
72959;BME280;60008;50.826;6.896;2023-06-19T05:30:32;100560.56;;;20.63;100.00
72959;BME280;60008;50.826;6.896;2023-06-19T05:33:23;100562.13;;;20.82;100.00
72959;BME280;60008;50.826;6.896;2023-06-19T05:36:08;100564.84;;;20.94;100.00
72959;BME280;60008;50.826;6.896;2023-06-19T05:39:00;100567.59;;;20.64;100.00
72959;BME280;60008;50.826;6.896;2023-06-19T05:41:45;100574.63;;;20.76;100.00
72959;BME280;60008;50.826;6.896;2023-06-19T05:44:37;100574.56;;;21.06;100.00
72959;BME280;60008;50.826;6.896;2023-06-19T05:47:22;100577.44;;;21.34;100.00
72959;BME280;60008;50.826;6.896;2023-06-19T05:50:16;100584.47;;;21.35;100.00
72959;BME280;60008;50.826;6.896;2023-06-19T05:53:01;100587.88;;;21.66;100.00
72959;BME280;60008;50.826;6.896;2023-06-19T05:55:53;100583.31;;;21.55;100.00
72959;BME280;60008;50.826;6.896;2023-06-19T05:58:44;100597.25;;;21.63;100.00
72959;BME280;60008;50.826;6.896;2023-06-19T06:01:35;100601.47;;;21.24;100.00
72959;BME280;60008;50.826;6.896;2023-06-19T06:04:34;100599.00;;;21.23;100.00
72959;BME280;60008;50.826;6.896;2023-06-19T06:07:25;100601.25;;;21.14;100.00
72959;BME280;60008;50.826;6.896;2023-06-19T06:10:21;100603.69;;;21.27;100.00
72959;BME280;60008;50.826;6.896;2023-06-19T06:13:13;100608.03;;;21.17;100.00
72959;BME280;60008;50.826;6.896;2023-06-19T06:15:58;100597.59;;;21.32;100.00
72959;BME280;60008;50.826;6.896;2023-06-19T06:18:50;100607.09;;;21.46;100.00
72959;BME280;60008;50.826;6.896;2023-06-19T06:21:35;100602.06;;;21.50;100.00
72959;BME280;60008;50.826;6.896;2023-06-19T06:24:26;100600.03;;;21.80;100.00
72959;BME280;60008;50.826;6.896;2023-06-19T06:27:12;100600.50;;;22.00;100.00
72959;BME280;60008;50.826;6.896;2023-06-19T06:30:05;100608.13;;;22.03;100.00
72959;BME280;60008;50.826;6.896;2023-06-19T06:32:50;100595.88;;;22.40;100.00
72959;BME280;60008;50.826;6.896;2023-06-19T06:35:42;100600.50;;;22.57;100.00
72959;BME280;60008;50.826;6.896;2023-06-19T06:38:27;100593.81;;;22.59;100.00
72959;BME280;60008;50.826;6.896;2023-06-19T06:41:18;100603.47;;;22.55;100.00
72959;BME280;60008;50.826;6.896;2023-06-19T06:44:03;100615.47;;;22.19;100.00
72959;BME280;60008;50.826;6.896;2023-06-19T06:46:56;100616.13;;;22.26;100.00
72959;BME280;60008;50.826;6.896;2023-06-19T06:49:41;100622.13;;;22.28;100.00
72959;BME280;60008;50.826;6.896;2023-06-19T06:52:32;100625.38;;;22.42;100.00
72959;BME280;60008;50.826;6.896;2023-06-19T06:55:24;100631.88;;;22.86;100.00
72959;BME280;60008;50.826;6.896;2023-06-19T06:58:15;100628.53;;;22.95;100.00
72959;BME280;60008;50.826;6.896;2023-06-19T07:01:02;100626.75;;;23.18;100.00
72959;BME280;60008;50.826;6.896;2023-06-19T07:03:59;100625.59;;;23.13;100.00
72959;BME280;60008;50.826;6.896;2023-06-19T07:06:58;100628.22;;;23.08;100.00
72959;BME280;60008;50.826;6.896;2023-06-19T07:09:50;100625.09;;;23.33;100.00
72959;BME280;60008;50.826;6.896;2023-06-19T07:12:35;100641.84;;;23.47;100.00
72959;BME280;60008;50.826;6.896;2023-06-19T07:15:27;100639.59;;;23.77;100.00
72959;BME280;60008;50.826;6.896;2023-06-19T07:18:12;100631.91;;;23.69;100.00
72959;BME280;60008;50.826;6.896;2023-06-19T07:21:10;100634.28;;;23.65;100.00
72959;BME280;60008;50.826;6.896;2023-06-19T07:24:02;100629.84;;;23.98;100.00
72959;BME280;60008;50.826;6.896;2023-06-19T07:26:54;100634.25;;;24.04;100.00
72959;BME280;60008;50.826;6.896;2023-06-19T07:29:47;100635.63;;;23.85;100.00
72959;BME280;60008;50.826;6.896;2023-06-19T07:32:32;100629.69;;;24.04;100.00
72959;BME280;60008;50.826;6.896;2023-06-19T07:35:24;100642.94;;;24.06;100.00
72959;BME280;60008;50.826;6.896;2023-06-19T07:38:09;100638.25;;;23.96;100.00
72959;BME280;60008;50.826;6.896;2023-06-19T07:41:00;100641.09;;;24.28;100.00
72959;BME280;60008;50.826;6.896;2023-06-19T07:43:45;100641.81;;;24.18;100.00
72959;BME280;60008;50.826;6.896;2023-06-19T07:46:37;100648.22;;;24.34;100.00
72959;BME280;60008;50.826;6.896;2023-06-19T07:49:28;100647.31;;;24.50;100.00
72959;BME280;60008;50.826;6.896;2023-06-19T07:52:13;100642.50;;;25.06;100.00
72959;BME280;60008;50.826;6.896;2023-06-19T07:55:05;100635.53;;;25.20;100.00
72959;BME280;60008;50.826;6.896;2023-06-19T07:57:57;100633.19;;;23.83;100.00
72959;BME280;60008;50.826;6.896;2023-06-19T08:00:49;100645.13;;;24.25;100.00
72959;BME280;60008;50.826;6.896;2023-06-19T08:03:34;100644.00;;;25.60;100.00
72959;BME280;60008;50.826;6.896;2023-06-19T08:06:32;100648.16;;;25.36;100.00
72959;BME280;60008;50.826;6.896;2023-06-19T08:09:17;100656.22;;;24.94;100.00
72959;BME280;60008;50.826;6.896;2023-06-19T08:12:09;100649.63;;;26.47;94.61
72959;BME280;60008;50.826;6.896;2023-06-19T08:14:54;100650.38;;;25.07;100.00
72959;BME280;60008;50.826;6.896;2023-06-19T08:17:45;100638.63;;;27.14;91.24
72959;BME280;60008;50.826;6.896;2023-06-19T08:20:30;100648.31;;;28.11;82.21
72959;BME280;60008;50.826;6.896;2023-06-19T08:23:22;100638.25;;;27.92;82.57
72959;BME280;60008;50.826;6.896;2023-06-19T08:26:07;100634.50;;;28.47;80.18
72959;BME280;60008;50.826;6.896;2023-06-19T08:28:59;100644.94;;;30.51;65.18
72959;BME280;60008;50.826;6.896;2023-06-19T08:31:44;100649.97;;;28.02;77.72
72959;BME280;60008;50.826;6.896;2023-06-19T08:34:35;100651.88;;;26.03;92.81
72959;BME280;60008;50.826;6.896;2023-06-19T08:37:21;100658.03;;;25.15;94.59
72959;BME280;60008;50.826;6.896;2023-06-19T08:40:12;100659.44;;;25.23;94.26
72959;BME280;60008;50.826;6.896;2023-06-19T08:42:57;100666.66;;;25.44;94.97
72959;BME280;60008;50.826;6.896;2023-06-19T08:45:59;100660.88;;;25.62;92.86
72959;BME280;60008;50.826;6.896;2023-06-19T08:48:55;100662.81;;;25.72;90.97
72959;BME280;60008;50.826;6.896;2023-06-19T08:51:40;100667.91;;;25.58;95.13
72959;BME280;60008;50.826;6.896;2023-06-19T08:54:32;100663.41;;;29.64;72.35
72959;BME280;60008;50.826;6.896;2023-06-19T08:57:33;100661.47;;;27.13;84.50
72959;BME280;60008;50.826;6.896;2023-06-19T09:00:26;100667.69;;;26.84;83.59
72959;BME280;60008;50.826;6.896;2023-06-19T09:03:21;100657.06;;;29.06;76.54
72959;BME280;60008;50.826;6.896;2023-06-19T09:06:16;100656.84;;;27.34;84.00
72959;BME280;60008;50.826;6.896;2023-06-19T09:09:08;100667.03;;;28.87;76.00
72959;BME280;60008;50.826;6.896;2023-06-19T09:12:06;100675.28;;;28.08;78.13
72959;BME280;60008;50.826;6.896;2023-06-19T09:14:58;100678.59;;;28.69;74.45
72959;BME280;60008;50.826;6.896;2023-06-19T09:17:43;100681.75;;;28.37;73.53
72959;BME280;60008;50.826;6.896;2023-06-19T09:20:40;100677.47;;;29.76;64.06
72959;BME280;60008;50.826;6.896;2023-06-19T09:23:29;100669.16;;;31.00;59.80
72959;BME280;60008;50.826;6.896;2023-06-19T09:26:20;100668.25;;;31.55;57.29
72959;BME280;60008;50.826;6.896;2023-06-19T09:29:14;100670.31;;;30.33;60.68
72959;BME280;60008;50.826;6.896;2023-06-19T09:32:24;100672.03;;;29.47;65.42
72959;BME280;60008;50.826;6.896;2023-06-19T09:35:09;100670.34;;;29.23;63.55
72959;BME280;60008;50.826;6.896;2023-06-19T09:38:01;100676.22;;;29.97;61.68
72959;BME280;60008;50.826;6.896;2023-06-19T09:40:47;100666.38;;;31.18;58.00
72959;BME280;60008;50.826;6.896;2023-06-19T09:43:43;100660.44;;;30.98;55.06
72959;BME280;60008;50.826;6.896;2023-06-19T09:46:30;100661.34;;;30.88;55.72
72959;BME280;60008;50.826;6.896;2023-06-19T09:49:28;100666.38;;;32.37;52.20
72959;BME280;60008;50.826;6.896;2023-06-19T09:52:24;100664.91;;;30.89;54.06
72959;BME280;60008;50.826;6.896;2023-06-19T09:55:10;100664.81;;;31.63;53.37
72959;BME280;60008;50.826;6.896;2023-06-19T09:58:05;100657.44;;;32.32;52.11
72959;BME280;60008;50.826;6.896;2023-06-19T10:00:51;100663.34;;;32.39;49.91
72959;BME280;60008;50.826;6.896;2023-06-19T10:03:42;100659.81;;;32.74;48.36
72959;BME280;60008;50.826;6.896;2023-06-19T10:06:47;100665.22;;;33.68;45.27
72959;BME280;60008;50.826;6.896;2023-06-19T10:09:40;100670.44;;;32.54;47.98
72959;BME280;60008;50.826;6.896;2023-06-19T10:12:40;100665.84;;;32.63;46.34
72959;BME280;60008;50.826;6.896;2023-06-19T10:15:31;100657.59;;;33.65;44.42
72959;BME280;60008;50.826;6.896;2023-06-19T10:18:18;100668.81;;;32.66;46.33
72959;BME280;60008;50.826;6.896;2023-06-19T10:21:16;100665.34;;;31.79;47.24
72959;BME280;60008;50.826;6.896;2023-06-19T10:24:01;100653.38;;;33.37;43.82
72959;BME280;60008;50.826;6.896;2023-06-19T10:27:01;100662.00;;;32.86;45.63
72959;BME280;60008;50.826;6.896;2023-06-19T10:29:52;100650.94;;;33.35;45.54
72959;BME280;60008;50.826;6.896;2023-06-19T10:33:00;100654.88;;;33.74;43.28
72959;BME280;60008;50.826;6.896;2023-06-19T10:35:54;100653.72;;;34.05;42.69
72959;BME280;60008;50.826;6.896;2023-06-19T10:38:40;100652.22;;;34.47;41.36
72959;BME280;60008;50.826;6.896;2023-06-19T10:41:31;100651.94;;;33.39;41.75
72959;BME280;60008;50.826;6.896;2023-06-19T10:44:23;100655.28;;;31.42;43.76
72959;BME280;60008;50.826;6.896;2023-06-19T10:47:10;100647.84;;;32.43;43.58
72959;BME280;60008;50.826;6.896;2023-06-19T10:50:01;100646.44;;;33.17;44.93
72959;BME280;60008;50.826;6.896;2023-06-19T10:52:55;100640.22;;;32.89;44.73
72959;BME280;60008;50.826;6.896;2023-06-19T10:55:40;100636.13;;;33.45;42.21
72959;BME280;60008;50.826;6.896;2023-06-19T10:58:32;100630.13;;;32.76;43.29
72959;BME280;60008;50.826;6.896;2023-06-19T11:01:18;100625.56;;;32.09;43.00
72959;BME280;60008;50.826;6.896;2023-06-19T11:04:11;100628.19;;;32.00;41.85
72959;BME280;60008;50.826;6.896;2023-06-19T11:07:09;100633.13;;;31.57;43.67
72959;BME280;60008;50.826;6.896;2023-06-19T11:10:02;100633.66;;;33.66;41.21
72959;BME280;60008;50.826;6.896;2023-06-19T11:12:56;100639.84;;;31.33;43.19
72959;BME280;60008;50.826;6.896;2023-06-19T11:15:42;100619.91;;;30.39;47.82
72959;BME280;60008;50.826;6.896;2023-06-19T11:18:33;100625.16;;;31.10;46.96
72959;BME280;60008;50.826;6.896;2023-06-19T11:21:18;100624.59;;;29.67;48.12
72959;BME280;60008;50.826;6.896;2023-06-19T11:24:12;100624.28;;;31.47;44.78
72959;BME280;60008;50.826;6.896;2023-06-19T11:27:05;100628.06;;;31.92;44.43
72959;BME280;60008;50.826;6.896;2023-06-19T11:29:55;100614.88;;;32.70;43.50
72959;BME280;60008;50.826;6.896;2023-06-19T11:32:46;100613.44;;;32.23;44.47
72959;BME280;60008;50.826;6.896;2023-06-19T11:35:33;100617.72;;;30.78;48.28
72959;BME280;60008;50.826;6.896;2023-06-19T11:38:27;100617.34;;;30.66;49.66
72959;BME280;60008;50.826;6.896;2023-06-19T11:41:12;100615.63;;;30.89;50.72
72959;BME280;60008;50.826;6.896;2023-06-19T11:44:05;100618.66;;;31.06;49.32
72959;BME280;60008;50.826;6.896;2023-06-19T11:46:50;100617.28;;;29.86;50.04
72959;BME280;60008;50.826;6.896;2023-06-19T11:49:41;100620.47;;;29.41;54.32
72959;BME280;60008;50.826;6.896;2023-06-19T11:52:27;100626.25;;;29.63;53.54
72959;BME280;60008;50.826;6.896;2023-06-19T11:55:18;100634.88;;;29.46;52.60
72959;BME280;60008;50.826;6.896;2023-06-19T11:58:03;100620.59;;;29.55;53.07
72959;BME280;60008;50.826;6.896;2023-06-19T12:00:55;100624.53;;;29.72;51.75
72959;BME280;60008;50.826;6.896;2023-06-19T12:03:47;100620.69;;;29.73;53.37
72959;BME280;60008;50.826;6.896;2023-06-19T12:06:32;100622.94;;;29.66;53.11
72959;BME280;60008;50.826;6.896;2023-06-19T12:09:31;100618.69;;;29.55;53.93
72959;BME280;60008;50.826;6.896;2023-06-19T12:12:34;100616.56;;;29.76;52.98
72959;BME280;60008;50.826;6.896;2023-06-19T12:15:26;100614.34;;;29.54;51.96
72959;BME280;60008;50.826;6.896;2023-06-19T12:18:21;100608.34;;;29.23;52.57
72959;BME280;60008;50.826;6.896;2023-06-19T12:21:12;100605.25;;;29.01;53.85
72959;BME280;60008;50.826;6.896;2023-06-19T12:24:17;100600.16;;;29.23;55.07
72959;BME280;60008;50.826;6.896;2023-06-19T12:27:09;100590.78;;;28.62;61.52
72959;BME280;60008;50.826;6.896;2023-06-19T12:29:53;100599.00;;;29.58;58.24
72959;BME280;60008;50.826;6.896;2023-06-19T12:32:45;100609.38;;;29.85;57.42
72959;BME280;60008;50.826;6.896;2023-06-19T12:35:34;100611.28;;;29.84;53.72
72959;BME280;60008;50.826;6.896;2023-06-19T12:38:26;100601.09;;;29.66;54.01
72959;BME280;60008;50.826;6.896;2023-06-19T12:41:11;100609.47;;;29.17;53.87
72959;BME280;60008;50.826;6.896;2023-06-19T12:44:03;100604.88;;;29.70;54.52
72959;BME280;60008;50.826;6.896;2023-06-19T12:46:48;100604.31;;;29.44;53.68
72959;BME280;60008;50.826;6.896;2023-06-19T12:49:39;100616.72;;;29.61;52.38
72959;BME280;60008;50.826;6.896;2023-06-19T12:52:31;100610.88;;;29.43;54.04
72959;BME280;60008;50.826;6.896;2023-06-19T12:55:22;100609.47;;;29.51;53.93
72959;BME280;60008;50.826;6.896;2023-06-19T12:58:13;100599.41;;;29.70;53.81
72959;BME280;60008;50.826;6.896;2023-06-19T13:01:04;100589.25;;;29.76;50.61
72959;BME280;60008;50.826;6.896;2023-06-19T13:03:50;100587.03;;;29.54;54.51
72959;BME280;60008;50.826;6.896;2023-06-19T13:06:42;100586.16;;;29.82;56.87
72959;BME280;60008;50.826;6.896;2023-06-19T13:09:39;100588.44;;;29.99;52.59
72959;BME280;60008;50.826;6.896;2023-06-19T13:12:24;100589.75;;;29.54;53.87
72959;BME280;60008;50.826;6.896;2023-06-19T13:15:17;100581.25;;;29.32;53.48
72959;BME280;60008;50.826;6.896;2023-06-19T13:18:02;100585.56;;;29.62;53.08
72959;BME280;60008;50.826;6.896;2023-06-19T13:20:53;100579.69;;;29.21;54.59
72959;BME280;60008;50.826;6.896;2023-06-19T13:23:38;100580.00;;;28.85;55.44
72959;BME280;60008;50.826;6.896;2023-06-19T13:26:29;100564.28;;;28.72;55.33
72959;BME280;60008;50.826;6.896;2023-06-19T13:29:15;100557.19;;;29.05;57.00
72959;BME280;60008;50.826;6.896;2023-06-19T13:32:06;100560.22;;;29.32;54.54
72959;BME280;60008;50.826;6.896;2023-06-19T13:34:52;100563.72;;;29.33;57.42
72959;BME280;60008;50.826;6.896;2023-06-19T13:37:47;100561.66;;;28.91;52.66
72959;BME280;60008;50.826;6.896;2023-06-19T13:40:33;100561.41;;;29.16;53.25
72959;BME280;60008;50.826;6.896;2023-06-19T13:43:24;100562.94;;;29.32;51.42
72959;BME280;60008;50.826;6.896;2023-06-19T13:46:09;100558.88;;;28.96;50.53
72959;BME280;60008;50.826;6.896;2023-06-19T13:49:00;100553.38;;;29.01;51.56
72959;BME280;60008;50.826;6.896;2023-06-19T13:51:51;100554.13;;;29.40;53.92
72959;BME280;60008;50.826;6.896;2023-06-19T13:54:43;100555.28;;;28.72;50.26
72959;BME280;60008;50.826;6.896;2023-06-19T13:57:28;100549.91;;;28.08;53.32
72959;BME280;60008;50.826;6.896;2023-06-19T14:00:20;100544.06;;;28.34;52.94
72959;BME280;60008;50.826;6.896;2023-06-19T14:03:12;100551.94;;;28.80;52.91
72959;BME280;60008;50.826;6.896;2023-06-19T14:05:58;100547.75;;;28.87;54.15
72959;BME280;60008;50.826;6.896;2023-06-19T14:08:49;100541.63;;;29.01;52.78
72959;BME280;60008;50.826;6.896;2023-06-19T14:11:47;100542.16;;;29.03;53.10
72959;BME280;60008;50.826;6.896;2023-06-19T14:14:32;100539.56;;;29.21;51.87
72959;BME280;60008;50.826;6.896;2023-06-19T14:17:24;100543.34;;;29.25;52.35
72959;BME280;60008;50.826;6.896;2023-06-19T14:20:10;100540.59;;;29.25;49.30
72959;BME280;60008;50.826;6.896;2023-06-19T14:23:02;100541.44;;;29.21;51.02
72959;BME280;60008;50.826;6.896;2023-06-19T14:25:47;100530.19;;;29.27;52.59
72959;BME280;60008;50.826;6.896;2023-06-19T14:28:38;100541.19;;;29.22;55.58
72959;BME280;60008;50.826;6.896;2023-06-19T14:31:24;100536.53;;;29.23;51.42
72959;BME280;60008;50.826;6.896;2023-06-19T14:34:15;100535.28;;;29.10;52.44
72959;BME280;60008;50.826;6.896;2023-06-19T14:37:00;100528.19;;;28.80;51.98
72959;BME280;60008;50.826;6.896;2023-06-19T14:39:51;100531.13;;;28.89;51.29
72959;BME280;60008;50.826;6.896;2023-06-19T14:42:36;100531.53;;;28.72;50.92
72959;BME280;60008;50.826;6.896;2023-06-19T14:45:28;100528.66;;;28.87;52.17